createdAt,value
2022-10-18T00:00:53.759Z,15.20
2022-10-18T00:07:36.131Z,15.10
2022-10-18T00:14:18.595Z,15.10
2022-10-18T00:21:07.354Z,15.10
2022-10-18T00:27:49.686Z,15.10
2022-10-18T00:34:32.025Z,15.10
2022-10-18T00:41:28.803Z,15.10
2022-10-18T00:48:13.289Z,15.00
2022-10-18T00:54:56.663Z,14.90
2022-10-18T01:01:39.022Z,15.00
2022-10-18T01:08:33.007Z,15.00
2022-10-18T01:15:27.292Z,15.10
2022-10-18T01:22:25.597Z,15.20
2022-10-18T01:29:20.183Z,15.20
2022-10-18T01:36:21.171Z,15.30
2022-10-18T01:43:04.485Z,15.40
2022-10-18T01:49:47.010Z,15.50
2022-10-18T01:57:03.402Z,15.50
2022-10-18T02:03:47.694Z,15.50
2022-10-18T02:10:42.631Z,15.50
2022-10-18T02:17:28.758Z,15.30
2022-10-18T02:24:14.144Z,15.40
2022-10-18T02:31:06.742Z,15.40
2022-10-18T02:37:52.710Z,15.40
2022-10-18T02:44:35.491Z,15.40
2022-10-18T02:51:17.858Z,15.30
2022-10-18T02:58:00.162Z,15.40
2022-10-18T03:04:42.526Z,15.50
2022-10-18T03:11:25.016Z,15.60
2022-10-18T03:18:07.331Z,15.60
2022-10-18T03:24:49.619Z,15.50
2022-10-18T03:31:32.456Z,15.50
2022-10-18T03:38:20.108Z,15.40
2022-10-18T03:45:02.452Z,15.30
2022-10-18T03:51:44.749Z,15.50
2022-10-18T03:58:27.102Z,15.50
2022-10-18T04:05:09.830Z,15.50
2022-10-18T04:11:52.948Z,15.40
2022-10-18T04:18:35.243Z,15.40
2022-10-18T04:25:18.036Z,15.30
2022-10-18T04:32:00.715Z,15.30
2022-10-18T04:38:43.018Z,15.40
2022-10-18T04:45:25.454Z,15.40
2022-10-18T04:52:07.882Z,15.40
2022-10-18T04:58:50.157Z,15.40
2022-10-18T05:05:49.602Z,15.50
2022-10-18T05:12:35.061Z,15.40
2022-10-18T05:19:17.555Z,15.30
2022-10-18T05:26:05.008Z,15.20
2022-10-18T05:32:47.411Z,15.20
2022-10-18T05:39:29.705Z,15.30
2022-10-18T05:46:15.370Z,15.10
2022-10-18T05:53:06.912Z,15.00
2022-10-18T05:59:54.976Z,14.90
2022-10-18T06:06:38.109Z,14.70
2022-10-18T06:13:20.504Z,14.60
2022-10-18T06:20:02.902Z,14.70
2022-10-18T06:26:45.240Z,14.50
2022-10-18T06:33:27.612Z,14.70
2022-10-18T06:40:10.622Z,15.10
2022-10-18T06:46:55.891Z,15.80
2022-10-18T06:53:44.079Z,16.00
2022-10-18T07:00:36.497Z,16.00
2022-10-18T07:07:21.271Z,15.90
2022-10-18T07:14:04.878Z,16.10
2022-10-18T07:20:50.214Z,16.40
2022-10-18T07:27:42.896Z,16.60
2022-10-18T07:34:25.287Z,16.70
2022-10-18T07:41:08.878Z,16.60
2022-10-18T07:47:56.123Z,16.70
2022-10-18T07:54:38.549Z,17.30
2022-10-18T08:01:23.036Z,17.70
2022-10-18T08:08:07.972Z,18.40
2022-10-18T08:14:50.626Z,18.90
2022-10-18T08:21:33.068Z,19.50
2022-10-18T08:28:17.225Z,20.10
2022-10-18T08:34:59.526Z,20.40
2022-10-18T08:42:08.738Z,20.40
2022-10-18T08:48:55.021Z,20.40
2022-10-18T08:55:49.074Z,20.60
2022-10-18T09:03:18.245Z,21.00
2022-10-18T09:10:41.471Z,21.90
2022-10-18T09:17:40.573Z,24.40
2022-10-18T09:24:29.238Z,27.30
2022-10-18T09:31:41.844Z,25.90
2022-10-18T09:38:30.916Z,25.50
2022-10-18T09:45:37.803Z,24.50
2022-10-18T09:52:26.706Z,23.20
2022-10-18T09:59:31.356Z,23.40
2022-10-18T10:06:25.113Z,25.20
2022-10-18T10:13:17.430Z,23.70
2022-10-18T10:20:13.977Z,23.40
2022-10-18T10:27:02.145Z,24.30
2022-10-18T10:33:47.487Z,23.20
2022-10-18T10:40:50.433Z,22.80
2022-10-18T10:47:33.951Z,22.20
2022-10-18T10:54:20.372Z,22.20
2022-10-18T11:01:18.032Z,22.40
2022-10-18T11:08:04.093Z,22.20
2022-10-18T11:14:54.544Z,21.90
2022-10-18T11:21:38.056Z,22.00
2022-10-18T11:28:44.369Z,22.30
2022-10-18T11:35:41.796Z,22.80
2022-10-18T11:42:42.931Z,23.10
2022-10-18T11:49:31.249Z,22.80
2022-10-18T11:56:42.451Z,23.20
2022-10-18T12:03:24.708Z,23.50
2022-10-18T12:10:09.563Z,23.50
2022-10-18T12:17:13.531Z,22.80
2022-10-18T12:24:08.590Z,22.60
2022-10-18T12:31:04.768Z,22.50
2022-10-18T12:38:01.640Z,22.40
2022-10-18T12:44:43.991Z,22.10
2022-10-18T12:51:26.458Z,22.20
2022-10-18T12:58:14.802Z,22.20
2022-10-18T13:11:41.339Z,21.70
2022-10-18T13:18:30.440Z,21.50
2022-10-18T13:25:43.363Z,21.60
2022-10-18T13:32:45.438Z,21.70
2022-10-18T13:39:29.002Z,21.80
2022-10-18T13:46:12.004Z,22.00
2022-10-18T13:53:27.647Z,22.10
2022-10-18T14:00:36.902Z,22.40
2022-10-18T14:07:19.558Z,22.60
2022-10-18T14:14:29.923Z,22.60
2022-10-18T14:21:22.041Z,23.00
2022-10-18T14:28:31.571Z,23.00
2022-10-18T14:35:32.706Z,22.40
2022-10-18T14:42:24.085Z,21.90
2022-10-18T14:49:07.872Z,21.80
2022-10-18T14:56:04.077Z,21.70
2022-10-18T15:02:46.456Z,21.60
2022-10-18T15:09:32.014Z,21.30
2022-10-18T15:16:19.571Z,21.30
2022-10-18T15:23:20.726Z,21.30
2022-10-18T15:30:18.984Z,21.10
2022-10-18T15:37:16.552Z,21.00
2022-10-18T15:44:25.579Z,20.90
2022-10-18T15:51:48.202Z,20.70
2022-10-18T15:58:42.297Z,20.70
2022-10-18T16:05:25.644Z,20.70
2022-10-18T16:12:07.967Z,20.70
2022-10-18T16:18:50.812Z,20.60
2022-10-18T16:25:33.117Z,20.60
2022-10-18T16:32:15.438Z,20.50
2022-10-18T16:39:00.882Z,20.40
2022-10-18T16:45:43.346Z,20.30
2022-10-18T16:52:34.625Z,20.30
2022-10-18T16:59:31.637Z,20.20
2022-10-18T17:06:25.831Z,20.10
2022-10-18T17:13:08.188Z,20.00
2022-10-18T17:19:55.857Z,19.90
2022-10-18T17:26:45.588Z,19.90
2022-10-18T17:33:28.019Z,19.80
2022-10-18T17:40:10.651Z,19.60
2022-10-18T17:46:52.999Z,19.60
2022-10-18T17:53:35.400Z,19.50
2022-10-18T18:00:17.893Z,19.40
2022-10-18T18:07:00.291Z,19.30
2022-10-18T18:13:42.729Z,19.10
2022-10-18T18:20:25.930Z,18.90
2022-10-18T18:27:08.482Z,18.60
2022-10-18T18:33:55.839Z,18.40
2022-10-18T18:40:38.340Z,18.10
2022-10-18T18:47:23.530Z,17.90
2022-10-18T18:54:08.268Z,17.80
2022-10-18T19:00:50.565Z,17.60
2022-10-18T19:07:36.424Z,17.60
2022-10-18T19:14:19.320Z,17.20
2022-10-18T19:21:03.179Z,17.10
2022-10-18T19:27:45.940Z,16.90
2022-10-18T19:34:29.376Z,16.90
2022-10-18T19:41:11.826Z,16.90
2022-10-18T19:47:54.240Z,16.60
2022-10-18T19:54:36.567Z,16.50
2022-10-18T20:01:19.079Z,16.40
2022-10-18T20:08:01.446Z,16.40
2022-10-18T20:14:44.771Z,16.20
2022-10-18T20:21:28.901Z,16.10
2022-10-18T20:28:11.610Z,16.00
2022-10-18T20:34:53.921Z,15.80
2022-10-18T20:41:40.746Z,15.80
2022-10-18T20:48:23.227Z,15.70
2022-10-18T20:55:05.877Z,15.60
2022-10-18T21:01:48.253Z,15.60
2022-10-18T21:08:30.635Z,15.50
2022-10-18T21:15:13.069Z,15.50
2022-10-18T21:21:57.206Z,15.40
2022-10-18T21:28:39.573Z,15.40
2022-10-18T21:35:21.969Z,15.30
2022-10-18T21:42:04.320Z,15.20
2022-10-18T21:48:50.298Z,15.10
2022-10-18T21:55:35.835Z,15.00
2022-10-18T22:02:18.170Z,14.90
2022-10-18T22:09:03.946Z,14.80
2022-10-18T22:15:46.288Z,14.70
2022-10-18T22:22:28.591Z,14.50
2022-10-18T22:29:12.430Z,14.40
2022-10-18T22:35:54.785Z,14.40
2022-10-18T22:42:37.101Z,14.50
2022-10-18T22:49:19.435Z,14.60
2022-10-18T22:56:02.488Z,14.90
2022-10-18T23:02:44.835Z,15.00
2022-10-18T23:09:27.311Z,15.10
2022-10-18T23:16:09.654Z,14.90
2022-10-18T23:22:52.279Z,14.80
2022-10-18T23:29:34.863Z,14.60
2022-10-18T23:36:17.756Z,14.60
2022-10-18T23:43:00.063Z,14.50
2022-10-18T23:49:43.107Z,14.30
2022-10-18T23:56:25.441Z,14.30
